Time;durP1;ratioP1;P1;durP2;ratioP2;P2;SDS_P1;SDS_P2;PMS_P1;PMS_P2;Temp;Humidity;BMP_temperature;BMP_pressure;BME280_temperature;BME280_humidity;BME280_pressure;Samples;Min_cycle;Max_cycle;Signal;HPM_P1;HPM_P2
2021/11/20 00:00:38;;;;;;;32.35;4.70;;;;;;;;;;4986425;28;20137;-68
2021/11/20 00:03:05;;;;;;;28.10;5.00;;;;;;;;;;5000307;28;20137;-68
2021/11/20 00:05:34;;;;;;;26.03;5.23;;;;;;;;;;5005448;28;20046;-68
2021/11/20 00:08:01;;;;;;;26.95;4.45;;;;;;;;;;5007837;28;20343;-68
2021/11/20 00:10:28;;;;;;;32.50;6.10;;;;;;;;;;5003737;28;20164;-68
2021/11/20 00:12:55;;;;;;;23.40;4.63;;;;;;;;;;5002936;28;20042;-69
2021/11/20 00:15:23;;;;;;;28.43;4.30;;;;;;;;;;5000614;28;20080;-68
2021/11/20 00:17:50;;;;;;;28.95;4.85;;;;;;;;;;5008699;28;20453;-68
2021/11/20 00:20:18;;;;;;;30.38;4.75;;;;;;;;;;5006725;28;20096;-68
2021/11/20 00:22:46;;;;;;;30.55;4.90;;;;;;;;;;5003546;28;20140;-68
2021/11/20 00:25:23;;;;;;;28.60;4.65;;;;;;;;;;5001015;28;20133;-68
2021/11/20 00:27:52;;;;;;;24.75;4.30;;;;;;;;;;5000280;28;20046;-68
2021/11/20 00:30:24;;;;;;;32.40;4.80;;;;;;;;;;5006647;28;20042;-68
2021/11/20 00:32:57;;;;;;;31.23;5.18;;;;;;;;;;4990161;28;20149;-68
2021/11/20 00:35:26;;;;;;;27.63;4.45;;;;;;;;;;4983360;28;20149;-68
2021/11/20 00:37:55;;;;;;;38.60;5.18;;;;;;;;;;4982269;28;20146;-68
2021/11/20 00:40:27;;;;;;;21.17;4.10;;;;;;;;;;4984348;28;20289;-68
2021/11/20 00:42:54;;;;;;;27.23;4.28;;;;;;;;;;4986877;28;20138;-68
2021/11/20 00:45:21;;;;;;;29.90;4.95;;;;;;;;;;4981438;28;20085;-68
2021/11/20 00:47:47;;;;;;;29.55;4.95;;;;;;;;;;4973168;28;20050;-68
2021/11/20 00:50:15;;;;;;;28.05;4.60;;;;;;;;;;4982326;28;20129;-68
2021/11/20 00:52:42;;;;;;;28.45;4.30;;;;;;;;;;4986586;28;20054;-68
2021/11/20 00:55:11;;;;;;;35.75;5.40;;;;;;;;;;4984755;28;20085;-68
2021/11/20 00:57:38;;;;;;;36.55;4.97;;;;;;;;;;4982298;28;20081;-68
2021/11/20 01:00:06;;;;;;;29.55;4.72;;;;;;;;;;4985984;28;20092;-68
2021/11/20 01:02:32;;;;;;;30.23;4.80;;;;;;;;;;4983129;28;20136;-68
2021/11/20 01:04:59;;;;;;;25.20;4.60;;;;;;;;;;4986818;28;20129;-68
2021/11/20 01:07:25;;;;;;;21.63;4.22;;;;;;;;;;4984912;28;20070;-68
2021/11/20 01:09:52;;;;;;;28.83;4.82;;;;;;;;;;4984056;28;20042;-68
2021/11/20 01:12:21;;;;;;;37.05;4.63;;;;;;;;;;4990378;28;20054;-68
2021/11/20 01:14:49;;;;;;;29.33;5.60;;;;;;;;;;4988661;28;20068;-68
2021/11/20 01:17:17;;;;;;;29.33;4.30;;;;;;;;;;4988289;28;20054;-68
2021/11/20 01:19:44;;;;;;;22.20;4.35;;;;;;;;;;4988910;28;20207;-70
2021/11/20 01:22:12;;;;;;;31.27;4.15;;;;;;;;;;4983411;28;20085;-68
2021/11/20 01:24:39;;;;;;;29.48;5.25;;;;;;;;;;4984706;28;20537;-68
2021/11/20 01:27:07;;;;;;;21.00;4.18;;;;;;;;;;4987656;28;20080;-68
2021/11/20 01:29:33;;;;;;;25.23;4.40;;;;;;;;;;4983577;28;20081;-68
2021/11/20 01:32:00;;;;;;;29.92;4.07;;;;;;;;;;4985113;28;20089;-68
2021/11/20 01:34:28;;;;;;;26.48;4.97;;;;;;;;;;4985673;28;20503;-68
2021/11/20 01:36:56;;;;;;;26.02;4.25;;;;;;;;;;4986747;28;20077;-68
2021/11/20 01:39:26;;;;;;;28.63;4.70;;;;;;;;;;4980611;28;20133;-69
2021/11/20 01:41:57;;;;;;;22.67;3.92;;;;;;;;;;4984097;28;20416;-68
2021/11/20 01:44:27;;;;;;;29.58;4.53;;;;;;;;;;4987051;28;20054;-68
2021/11/20 01:46:56;;;;;;;23.90;3.83;;;;;;;;;;4983657;28;20125;-68
2021/11/20 01:49:24;;;;;;;29.58;4.47;;;;;;;;;;4987135;28;20137;-68
2021/11/20 01:52:00;;;;;;;27.55;4.20;;;;;;;;;;4984270;28;20125;-68
2021/11/20 01:54:37;;;;;;;24.92;4.95;;;;;;;;;;4987189;28;20050;-67
2021/11/20 01:57:20;;;;;;;28.23;3.95;;;;;;;;;;4987250;28;20054;-68
2021/11/20 02:00:08;;;;;;;18.08;4.32;;;;;;;;;;4985423;28;20372;-67
2021/11/20 02:02:48;;;;;;;21.60;3.50;;;;;;;;;;4981986;28;20477;-68
2021/11/20 02:05:23;;;;;;;29.80;4.00;;;;;;;;;;4981180;28;20094;-67
2021/11/20 02:08:07;;;;;;;29.90;5.10;;;;;;;;;;4978208;28;20089;-68
2021/11/20 02:10:40;;;;;;;20.30;3.88;;;;;;;;;;4991421;28;20133;-68
2021/11/20 02:13:11;;;;;;;18.33;3.33;;;;;;;;;;4986668;28;20082;-67
2021/11/20 02:15:41;;;;;;;31.08;4.70;;;;;;;;;;4983630;28;20082;-67
2021/11/20 02:18:08;;;;;;;21.13;4.32;;;;;;;;;;4982249;28;20086;-67
2021/11/20 02:20:40;;;;;;;28.92;4.45;;;;;;;;;;4983951;28;20149;-68
2021/11/20 02:23:07;;;;;;;24.00;4.45;;;;;;;;;;4987364;28;20141;-67
2021/11/20 02:25:33;;;;;;;14.48;3.55;;;;;;;;;;4986469;28;20050;-68
2021/11/20 02:28:00;;;;;;;15.73;3.35;;;;;;;;;;4982720;28;20080;-69
2021/11/20 02:30:35;;;;;;;25.30;4.10;;;;;;;;;;4973097;28;20127;-68
2021/11/20 02:33:09;;;;;;;18.88;3.90;;;;;;;;;;4985489;28;20089;-68
2021/11/20 02:35:41;;;;;;;28.05;3.88;;;;;;;;;;4989946;28;20133;-68
2021/11/20 02:38:09;;;;;;;26.85;4.18;;;;;;;;;;4982831;28;20089;-67
2021/11/20 02:40:37;;;;;;;25.58;4.32;;;;;;;;;;4981295;28;20125;-68
2021/11/20 02:43:04;;;;;;;25.85;4.68;;;;;;;;;;4984780;28;20056;-68
2021/11/20 02:45:34;;;;;;;18.77;3.85;;;;;;;;;;4982566;28;20097;-68
2021/11/20 02:48:01;;;;;;;20.60;3.38;;;;;;;;;;4986476;28;20495;-68
2021/11/20 02:50:34;;;;;;;25.40;3.40;;;;;;;;;;4982908;28;20046;-68
2021/11/20 02:53:00;;;;;;;31.08;4.35;;;;;;;;;;4983726;28;20461;-67
2021/11/20 02:55:27;;;;;;;24.98;4.15;;;;;;;;;;4984298;28;20133;-68
2021/11/20 02:57:53;;;;;;;25.70;3.80;;;;;;;;;;4983597;28;20134;-68
2021/11/20 03:00:20;;;;;;;19.17;3.70;;;;;;;;;;4987901;28;20466;-68
2021/11/20 03:02:47;;;;;;;24.80;4.28;;;;;;;;;;4985805;28;20137;-68
2021/11/20 03:05:14;;;;;;;23.17;3.58;;;;;;;;;;4988318;28;20089;-68
2021/11/20 03:07:40;;;;;;;22.73;3.58;;;;;;;;;;4981085;28;20070;-67
2021/11/20 03:10:08;;;;;;;28.00;4.05;;;;;;;;;;4982408;28;20054;-68
2021/11/20 03:12:34;;;;;;;24.25;4.13;;;;;;;;;;4989645;28;20089;-68
2021/11/20 03:15:02;;;;;;;14.93;3.17;;;;;;;;;;4983581;28;20143;-68
2021/11/20 03:17:28;;;;;;;18.52;3.47;;;;;;;;;;4983261;28;20341;-67
2021/11/20 03:19:55;;;;;;;27.10;4.65;;;;;;;;;;4979585;28;20574;-68
2021/11/20 03:22:23;;;;;;;25.83;3.80;;;;;;;;;;4978323;28;20117;-67
2021/11/20 03:24:50;;;;;;;24.15;4.05;;;;;;;;;;4980458;28;20085;-69
2021/11/20 03:27:16;;;;;;;22.95;3.97;;;;;;;;;;4978030;28;20391;-68
2021/11/20 03:29:43;;;;;;;24.35;3.58;;;;;;;;;;4981292;28;20056;-67
2021/11/20 03:32:12;;;;;;;30.17;4.10;;;;;;;;;;4984029;28;20062;-68
2021/11/20 03:34:40;;;;;;;23.45;3.78;;;;;;;;;;4981464;28;20129;-68
2021/11/20 03:37:06;;;;;;;;;;;;;;;;;;4982712;28;20101;-68
2021/11/20 03:39:33;;;;;;;15.88;3.17;;;;;;;;;;4990417;28;20017;-67
2021/11/20 03:42:00;;;;;;;24.10;4.43;;;;;;;;;;4986105;28;20646;-67
2021/11/20 03:44:28;;;;;;;21.52;3.47;;;;;;;;;;4977007;28;20382;-67
2021/11/20 03:46:54;;;;;;;25.77;3.90;;;;;;;;;;4980481;28;20595;-67
2021/11/20 03:49:21;;;;;;;17.50;3.23;;;;;;;;;;4983669;28;20104;-68
2021/11/20 03:51:48;;;;;;;27.00;4.00;;;;;;;;;;4982015;28;20089;-68
2021/11/20 03:54:14;;;;;;;20.42;3.55;;;;;;;;;;4983004;28;20130;-67
2021/11/20 03:56:41;;;;;;;23.92;3.72;;;;;;;;;;4984835;28;20074;-68
2021/11/20 03:59:08;;;;;;;18.48;3.40;;;;;;;;;;4986591;28;20491;-68
2021/11/20 04:01:40;;;;;;;22.80;3.83;;;;;;;;;;4982633;28;20058;-67
2021/11/20 04:04:07;;;;;;;18.73;3.63;;;;;;;;;;4982916;28;20050;-68
2021/11/20 04:06:33;;;;;;;29.35;4.18;;;;;;;;;;4981395;28;20077;-67
2021/11/20 04:09:00;;;;;;;22.42;3.63;;;;;;;;;;4978424;28;20455;-67
2021/11/20 04:11:28;;;;;;;16.40;3.60;;;;;;;;;;4978341;28;20121;-67
2021/11/20 04:13:55;;;;;;;23.60;3.70;;;;;;;;;;4981042;28;20081;-67
2021/11/20 04:16:22;;;;;;;25.33;4.18;;;;;;;;;;4981586;28;20043;-67
2021/11/20 04:18:49;;;;;;;26.38;3.92;;;;;;;;;;4981978;28;20064;-68
2021/11/20 04:21:17;;;;;;;22.70;4.30;;;;;;;;;;4979998;28;20133;-68
2021/11/20 04:23:45;;;;;;;27.63;3.58;;;;;;;;;;4980533;28;20054;-67
2021/11/20 04:26:15;;;;;;;23.83;4.43;;;;;;;;;;4983651;28;20093;-67
2021/11/20 04:28:42;;;;;;;27.33;3.58;;;;;;;;;;4984106;28;20097;-68
2021/11/20 04:31:09;;;;;;;22.23;3.50;;;;;;;;;;4983064;28;20078;-67
2021/11/20 04:33:36;;;;;;;22.90;3.08;;;;;;;;;;4981671;28;20051;-67
2021/11/20 04:36:03;;;;;;;25.50;3.23;;;;;;;;;;4983459;28;20077;-68
2021/11/20 04:38:30;;;;;;;20.67;3.88;;;;;;;;;;4981574;28;20846;-67
2021/11/20 04:40:56;;;;;;;20.65;3.78;;;;;;;;;;4981118;28;20050;-67
2021/11/20 04:43:23;;;;;;;34.70;4.50;;;;;;;;;;4981170;28;20515;-68
2021/11/20 04:45:52;;;;;;;16.80;3.40;;;;;;;;;;4981041;28;20081;-67
2021/11/20 04:48:19;;;;;;;19.10;3.63;;;;;;;;;;4980045;28;20053;-67
2021/11/20 04:50:46;;;;;;;16.73;2.53;;;;;;;;;;4981546;28;20096;-67
2021/11/20 04:53:13;;;;;;;23.58;3.20;;;;;;;;;;4980388;28;20046;-68
2021/11/20 04:55:40;;;;;;;25.67;3.50;;;;;;;;;;4981407;28;20046;-68
2021/11/20 04:58:06;;;;;;;19.70;3.45;;;;;;;;;;4978753;28;20053;-67
2021/11/20 05:00:38;;;;;;;20.77;3.17;;;;;;;;;;4979978;28;20104;-68
2021/11/20 05:03:08;;;;;;;10.05;2.40;;;;;;;;;;4981857;28;20402;-68
2021/11/20 05:05:36;;;;;;;21.98;3.42;;;;;;;;;;4981909;28;20253;-67
2021/11/20 05:08:03;;;;;;;;;;;;;;;;;;4979728;28;20136;-68
2021/11/20 05:10:30;;;;;;;27.13;3.83;;;;;;;;;;4979656;28;20012;-67
2021/11/20 05:12:57;;;;;;;;;;;;;;;;;;4981526;28;20151;-68
2021/11/20 05:15:23;;;;;;;22.23;4.00;;;;;;;;;;4981086;28;20442;-68
2021/11/20 05:17:49;;;;;;;17.55;3.08;;;;;;;;;;4981895;28;20078;-67
2021/11/20 05:20:16;;;;;;;16.17;4.07;;;;;;;;;;4980057;28;20840;-68
2021/11/20 05:22:43;;;;;;;21.55;3.05;;;;;;;;;;4981873;28;20522;-67
2021/11/20 05:25:10;;;;;;;23.17;3.78;;;;;;;;;;4981399;28;21541;-68
2021/11/20 05:27:37;;;;;;;;;;;;;;;;;;4980048;28;20466;-67
2021/11/20 05:30:07;;;;;;;22.90;3.83;;;;;;;;;;4983218;28;20008;-67
2021/11/20 05:32:34;;;;;;;31.60;3.97;;;;;;;;;;4980708;28;20145;-67
2021/11/20 05:35:02;;;;;;;20.13;4.10;;;;;;;;;;4978246;28;20499;-67
2021/11/20 05:37:28;;;;;;;;;;;;;;;;;;4980281;28;20176;-68
2021/11/20 05:39:55;;;;;;;32.30;4.13;;;;;;;;;;4978220;28;19976;-67
2021/11/20 05:42:21;;;;;;;22.65;3.33;;;;;;;;;;4977516;28;20643;-68
2021/11/20 05:44:48;;;;;;;20.80;3.88;;;;;;;;;;4979694;28;20050;-67
2021/11/20 05:47:14;;;;;;;21.65;3.45;;;;;;;;;;4980351;28;20137;-68
2021/11/20 05:49:41;;;;;;;28.60;3.55;;;;;;;;;;4979839;28;20134;-68
2021/11/20 05:52:09;;;;;;;26.33;4.78;;;;;;;;;;4980485;28;20148;-67
2021/11/20 05:54:35;;;;;;;39.95;5.80;;;;;;;;;;4983488;28;20130;-67
2021/11/20 05:57:02;;;;;;;29.75;4.13;;;;;;;;;;4982950;28;20137;-67
2021/11/20 05:59:29;;;;;;;34.22;4.18;;;;;;;;;;4983246;28;20053;-67
2021/11/20 06:01:55;;;;;;;22.30;3.83;;;;;;;;;;4983224;28;20141;-67
2021/11/20 06:04:25;;;;;;;18.20;4.07;;;;;;;;;;4985225;28;20061;-68
2021/11/20 06:06:51;;;;;;;25.23;3.78;;;;;;;;;;4981020;28;20112;-67
2021/11/20 06:09:18;;;;;;;25.98;3.72;;;;;;;;;;4988155;28;20077;-67
2021/11/20 06:11:44;;;;;;;24.73;3.65;;;;;;;;;;4987811;28;20046;-67
2021/11/20 06:14:11;;;;;;;27.70;4.28;;;;;;;;;;4986201;28;20134;-68
2021/11/20 06:16:38;;;;;;;25.42;3.92;;;;;;;;;;4988676;28;20141;-67
2021/11/20 06:19:05;;;;;;;22.45;4.35;;;;;;;;;;4992005;28;20129;-67
2021/11/20 06:21:32;;;;;;;26.85;4.38;;;;;;;;;;4977994;28;20054;-67
2021/11/20 06:23:58;;;;;;;23.52;4.65;;;;;;;;;;4979558;28;20057;-67
2021/11/20 06:26:25;;;;;;;22.67;3.90;;;;;;;;;;4981109;28;20082;-68
2021/11/20 06:28:51;;;;;;;17.38;3.17;;;;;;;;;;4986937;28;20095;-67
2021/11/20 06:31:19;;;;;;;20.45;3.65;;;;;;;;;;4983194;28;20141;-68
2021/11/20 06:33:46;;;;;;;22.05;4.15;;;;;;;;;;4986244;28;20054;-67
2021/11/20 06:36:12;;;;;;;33.78;4.88;;;;;;;;;;4989755;28;20046;-67
2021/11/20 06:38:40;;;;;;;23.98;3.83;;;;;;;;;;4990075;28;20073;-67
2021/11/20 06:41:06;;;;;;;;;;;;;;;;;;4991927;28;20077;-67
2021/11/20 06:43:33;;;;;;;29.98;3.90;;;;;;;;;;4983945;28;20009;-67
2021/11/20 06:46:04;;;;;;;27.83;3.50;;;;;;;;;;4975198;28;20074;-67
2021/11/20 06:48:31;;;;;;;24.63;3.92;;;;;;;;;;4984537;28;20096;-67
2021/11/20 06:50:59;;;;;;;25.98;4.40;;;;;;;;;;4989769;28;20498;-67
2021/11/20 06:53:25;;;;;;;;;;;;;;;;;;4987659;28;20529;-67
2021/11/20 06:55:54;;;;;;;21.45;3.67;;;;;;;;;;4984283;28;20004;-67
2021/11/20 06:58:22;;;;;;;29.90;4.20;;;;;;;;;;4989666;28;20137;-67
2021/11/20 07:00:51;;;;;;;30.20;4.10;;;;;;;;;;4985699;28;20473;-67
2021/11/20 07:03:20;;;;;;;23.52;3.63;;;;;;;;;;4984978;28;20047;-67
2021/11/20 07:05:52;;;;;;;29.08;4.05;;;;;;;;;;4988648;28;20474;-67
2021/11/20 07:08:19;;;;;;;23.83;3.80;;;;;;;;;;4982092;28;20051;-67
2021/11/20 07:10:47;;;;;;;25.58;3.80;;;;;;;;;;4978589;28;20054;-67
2021/11/20 07:13:14;;;;;;;29.02;4.13;;;;;;;;;;4982870;28;20081;-67
2021/11/20 07:15:41;;;;;;;27.17;5.15;;;;;;;;;;4978512;28;20093;-67
2021/11/20 07:18:08;;;;;;;27.73;4.43;;;;;;;;;;4987762;28;20131;-67
2021/11/20 07:20:35;;;;;;;24.35;4.78;;;;;;;;;;4985651;28;20462;-67
2021/11/20 07:23:02;;;;;;;;;;;;;;;;;;4989423;28;20146;-67
2021/11/20 07:25:29;;;;;;;20.15;4.20;;;;;;;;;;4985862;28;19930;-68
2021/11/20 07:27:56;;;;;;;28.50;4.28;;;;;;;;;;4987430;28;20133;-67
2021/11/20 07:30:24;;;;;;;27.00;4.75;;;;;;;;;;4989033;28;20054;-67
2021/11/20 07:32:51;;;;;;;23.50;3.83;;;;;;;;;;4978073;28;20106;-67
2021/11/20 07:35:39;;;;;;;26.15;4.78;;;;;;;;;;4988564;28;20131;-67
2021/11/20 07:38:07;;;;;;;26.08;4.53;;;;;;;;;;4984539;28;20049;-67
2021/11/20 07:40:35;;;;;;;26.17;3.70;;;;;;;;;;4988534;28;20442;-67
2021/11/20 07:43:02;;;;;;;32.03;4.47;;;;;;;;;;4985202;28;20549;-67
2021/11/20 07:45:29;;;;;;;24.58;4.15;;;;;;;;;;4980564;28;20137;-67
2021/11/20 07:47:56;;;;;;;29.88;4.65;;;;;;;;;;4987656;28;20506;-68
2021/11/20 07:50:22;;;;;;;28.67;4.63;;;;;;;;;;4981139;28;20100;-67
2021/11/20 07:52:49;;;;;;;34.88;5.13;;;;;;;;;;4982880;28;20530;-67
2021/11/20 07:55:16;;;;;;;33.45;4.60;;;;;;;;;;4980483;28;20582;-68
2021/11/20 07:57:42;;;;;;;25.35;5.32;;;;;;;;;;4984011;28;20084;-67
2021/11/20 08:00:13;;;;;;;26.20;4.30;;;;;;;;;;4976556;28;20505;-67
2021/11/20 08:02:40;;;;;;;27.58;4.68;;;;;;;;;;4984206;28;20054;-67
2021/11/20 08:05:08;;;;;;;27.33;4.05;;;;;;;;;;4981402;28;20050;-67
2021/11/20 08:07:36;;;;;;;;;;;;;;;;;;4979211;28;20082;-67
2021/11/20 08:10:04;;;;;;;27.65;4.30;;;;;;;;;;4980871;28;20401;-67
2021/11/20 08:12:31;;;;;;;26.30;3.85;;;;;;;;;;4979430;28;20042;-67
2021/11/20 08:14:57;;;;;;;23.52;4.15;;;;;;;;;;4984353;28;20594;-67
2021/11/20 08:17:25;;;;;;;36.67;4.70;;;;;;;;;;4985961;28;20149;-67
2021/11/20 08:19:53;;;;;;;27.90;4.95;;;;;;;;;;4980943;28;20462;-67
2021/11/20 08:22:20;;;;;;;29.10;4.95;;;;;;;;;;4986174;28;20187;-67
2021/11/20 08:24:47;;;;;;;27.60;4.63;;;;;;;;;;4980170;28;20427;-68
2021/11/20 08:27:14;;;;;;;28.33;3.67;;;;;;;;;;4982090;28;20149;-67
2021/11/20 08:29:41;;;;;;;25.90;4.25;;;;;;;;;;4984629;28;20081;-68
2021/11/20 08:32:08;;;;;;;26.83;5.40;;;;;;;;;;4983268;28;20149;-68
2021/11/20 08:34:35;;;;;;;;;;;;;;;;;;4981665;28;20133;-68
2021/11/20 08:37:01;;;;;;;27.70;4.10;;;;;;;;;;4984639;28;20056;-68
2021/11/20 08:39:29;;;;;;;27.02;3.85;;;;;;;;;;4983014;28;20046;-68
2021/11/20 08:41:56;;;;;;;24.58;4.13;;;;;;;;;;4985348;28;20100;-67
2021/11/20 08:44:23;;;;;;;25.73;4.80;;;;;;;;;;4986588;28;20117;-67
2021/11/20 08:46:50;;;;;;;23.70;4.35;;;;;;;;;;4983918;28;20088;-67
2021/11/20 08:49:17;;;;;;;23.77;3.70;;;;;;;;;;4985118;28;20591;-68
2021/11/20 08:51:46;;;;;;;24.20;4.47;;;;;;;;;;4977590;28;20086;-68
2021/11/20 08:54:13;;;;;;;38.38;4.55;;;;;;;;;;4984007;28;20085;-68
2021/11/20 08:56:41;;;;;;;22.08;4.07;;;;;;;;;;4986241;28;20078;-67
2021/11/20 08:59:09;;;;;;;29.70;4.88;;;;;;;;;;4981148;28;20149;-67
2021/11/20 09:01:44;;;;;;;28.02;4.15;;;;;;;;;;4978075;28;20181;-67
2021/11/20 09:04:17;;;;;;;31.15;4.03;;;;;;;;;;4985277;28;20100;-67
2021/11/20 09:07:06;;;;;;;23.77;3.50;;;;;;;;;;4979220;28;20054;-67
2021/11/20 09:09:35;;;;;;;26.33;4.63;;;;;;;;;;4967267;28;20134;-67
2021/11/20 09:12:05;;;;;;;23.00;4.45;;;;;;;;;;4984688;28;20047;-67
2021/11/20 09:14:38;;;;;;;22.33;3.72;;;;;;;;;;4984651;28;20058;-68
2021/11/20 09:17:05;;;;;;;25.33;4.90;;;;;;;;;;4984421;28;20569;-67
2021/11/20 09:19:32;;;;;;;24.75;4.05;;;;;;;;;;4983390;28;20410;-68
2021/11/20 09:21:59;;;;;;;21.38;4.15;;;;;;;;;;4981326;28;20142;-68
2021/11/20 09:24:26;;;;;;;;;;;;;;;;;;4979738;28;20058;-68
2021/11/20 09:26:52;;;;;;;24.05;4.15;;;;;;;;;;4984809;28;20016;-67
2021/11/20 09:29:21;;;;;;;24.73;4.57;;;;;;;;;;4987852;28;20133;-68
2021/11/20 09:31:48;;;;;;;26.63;4.82;;;;;;;;;;4982503;28;20684;-68
2021/11/20 09:34:17;;;;;;;16.63;3.75;;;;;;;;;;4984319;28;20483;-68
2021/11/20 09:36:45;;;;;;;33.05;4.70;;;;;;;;;;4990225;28;20097;-68
2021/11/20 09:39:11;;;;;;;;;;;;;;;;;;4987303;28;20133;-68
2021/11/20 09:41:56;;;;;;;28.23;4.18;;;;;;;;;;4994511;28;19980;-68
2021/11/20 09:44:24;;;;;;;26.23;4.13;;;;;;;;;;4988548;28;20062;-68
2021/11/20 09:46:53;;;;;;;23.92;4.03;;;;;;;;;;4991481;28;20130;-68
2021/11/20 09:49:19;;;;;;;25.65;4.32;;;;;;;;;;4988138;28;20125;-68
2021/11/20 09:51:48;;;;;;;27.15;4.43;;;;;;;;;;4984015;28;20082;-68
2021/11/20 09:54:16;;;;;;;21.70;3.67;;;;;;;;;;4987259;28;20097;-68
2021/11/20 09:56:45;;;;;;;20.25;2.85;;;;;;;;;;4987792;28;20080;-67
2021/11/20 09:59:38;;;;;;;17.50;2.78;;;;;;;;;;4987128;28;20092;-68
2021/11/20 10:02:07;;;;;;;25.70;3.65;;;;;;;;;;4982292;28;20076;-68
2021/11/20 10:04:52;;;;;;;21.60;3.30;;;;;;;;;;4983629;28;20046;-68
2021/11/20 10:07:23;;;;;;;15.98;3.05;;;;;;;;;;4986224;28;20525;-67
2021/11/20 10:10:01;;;;;;;19.98;3.10;;;;;;;;;;4985525;28;20159;-67
2021/11/20 10:12:34;;;;;;;17.67;3.00;;;;;;;;;;4986456;28;20054;-68
2021/11/20 10:15:04;;;;;;;14.35;2.75;;;;;;;;;;4985904;28;20049;-69
2021/11/20 10:17:35;;;;;;;13.73;2.60;;;;;;;;;;4990118;28;20078;-67
2021/11/20 10:20:02;;;;;;;14.20;2.17;;;;;;;;;;4988066;28;20499;-67
2021/11/20 10:22:31;;;;;;;11.68;2.40;;;;;;;;;;4987773;28;20182;-67
2021/11/20 10:25:01;;;;;;;13.30;2.40;;;;;;;;;;4982893;28;20077;-67
2021/11/20 10:27:28;;;;;;;15.50;2.22;;;;;;;;;;4982604;28;20125;-67
2021/11/20 10:29:57;;;;;;;10.38;2.00;;;;;;;;;;4984607;28;20513;-67
2021/11/20 10:32:49;;;;;;;8.40;2.10;;;;;;;;;;4985549;28;20088;-67
2021/11/20 10:35:30;;;;;;;9.98;2.60;;;;;;;;;;4961134;28;20454;-67
2021/11/20 10:38:04;;;;;;;11.05;1.95;;;;;;;;;;4984791;28;20042;-67
2021/11/20 10:40:37;;;;;;;11.70;2.60;;;;;;;;;;4983600;28;20093;-67
2021/11/20 10:43:05;;;;;;;12.05;1.95;;;;;;;;;;4984837;28;20185;-68
2021/11/20 10:45:38;;;;;;;12.75;2.00;;;;;;;;;;4986498;28;20160;-67
2021/11/20 10:48:14;;;;;;;6.95;1.38;;;;;;;;;;4986112;28;20479;-67
2021/11/20 10:50:43;;;;;;;10.40;1.80;;;;;;;;;;4980850;28;20455;-67
2021/11/20 10:53:19;;;;;;;8.80;1.50;;;;;;;;;;4984295;28;20070;-67
2021/11/20 10:56:01;;;;;;;13.95;2.28;;;;;;;;;;4982039;28;20498;-67
2021/11/20 10:58:47;;;;;;;5.82;1.35;;;;;;;;;;4984902;28;20661;-67
2021/11/20 11:01:32;;;;;;;11.20;1.80;;;;;;;;;;4975000;28;20687;-67
2021/11/20 11:04:07;;;;;;;7.03;1.88;;;;;;;;;;4983233;28;20046;-67
2021/11/20 11:06:45;;;;;;;5.70;2.22;;;;;;;;;;4977932;28;20547;-67
2021/11/20 11:09:30;;;;;;;9.23;2.00;;;;;;;;;;4983806;28;20080;-67
2021/11/20 11:12:03;;;;;;;6.78;1.80;;;;;;;;;;4983750;28;20345;-67
2021/11/20 11:14:49;;;;;;;5.47;1.70;;;;;;;;;;4986735;28;20078;-67
2021/11/20 11:17:54;;;;;;;6.18;1.60;;;;;;;;;;4982081;28;20521;-67
2021/11/20 11:20:27;;;;;;;6.95;1.27;;;;;;;;;;4903806;29;20600;-67
2021/11/20 11:22:57;;;;;;;7.05;1.65;;;;;;;;;;4905460;29;20639;-68
2021/11/20 11:25:25;;;;;;;4.00;1.17;;;;;;;;;;4943476;28;20134;-69
2021/11/20 11:28:10;;;;;;;6.07;1.42;;;;;;;;;;4978760;28;20490;-69
2021/11/20 11:30:40;;;;;;;5.30;1.45;;;;;;;;;;4983893;28;20086;-69
2021/11/20 11:33:07;;;;;;;5.60;1.60;;;;;;;;;;4977696;28;20065;-70
2021/11/20 11:35:40;;;;;;;12.77;1.30;;;;;;;;;;4984444;28;20046;-70
2021/11/20 11:38:16;;;;;;;2.00;1.10;;;;;;;;;;4983895;28;20307;-69
2021/11/20 11:41:06;;;;;;;1.70;0.63;;;;;;;;;;4985106;28;20396;-70
2021/11/20 11:43:43;;;;;;;3.10;0.95;;;;;;;;;;4986342;28;20125;-70
2021/11/20 11:46:49;;;;;;;2.13;1.25;;;;;;;;;;4984700;28;20161;-70
2021/11/20 11:49:27;;;;;;;2.30;1.40;;;;;;;;;;4910445;29;20507;-70
2021/11/20 11:51:56;;;;;;;5.10;1.52;;;;;;;;;;4915501;29;20631;-70
2021/11/20 11:54:32;;;;;;;4.38;1.50;;;;;;;;;;4952669;28;20117;-70
2021/11/20 11:57:13;;;;;;;5.80;1.30;;;;;;;;;;4986098;28;20162;-70
2021/11/20 11:59:52;;;;;;;4.32;1.50;;;;;;;;;;4986129;28;20467;-70
2021/11/20 12:02:18;;;;;;;2.28;1.13;;;;;;;;;;4983504;28;20442;-70
2021/11/20 12:04:56;;;;;;;4.28;1.23;;;;;;;;;;4981384;28;20046;-70
2021/11/20 12:07:25;;;;;;;5.03;1.30;;;;;;;;;;4982021;28;20422;-70
2021/11/20 12:10:11;;;;;;;1.83;1.00;;;;;;;;;;4983113;28;20145;-70
2021/11/20 12:12:39;;;;;;;4.53;1.60;;;;;;;;;;4978112;28;20145;-70
2021/11/20 12:15:21;;;;;;;3.47;1.30;;;;;;;;;;4982105;28;20130;-70
2021/11/20 12:18:06;;;;;;;2.90;1.20;;;;;;;;;;4985553;28;20462;-70
2021/11/20 12:20:40;;;;;;;5.38;1.15;;;;;;;;;;4981563;28;20130;-70
2021/11/20 12:23:24;;;;;;;2.25;1.02;;;;;;;;;;4978346;28;20082;-70
2021/11/20 12:25:55;;;;;;;2.72;0.93;;;;;;;;;;4979882;28;20141;-70
2021/11/20 12:28:38;;;;;;;3.50;1.30;;;;;;;;;;4976632;28;20066;-70
2021/11/20 12:31:20;;;;;;;2.53;0.93;;;;;;;;;;4982861;28;20149;-70
2021/11/20 12:34:10;;;;;;;1.60;1.08;;;;;;;;;;4983732;28;20125;-71
2021/11/20 12:36:36;;;;;;;3.08;0.80;;;;;;;;;;4985285;28;20550;-71
2021/11/20 12:39:15;;;;;;;1.50;0.80;;;;;;;;;;4986762;28;20578;-70
2021/11/20 12:41:50;;;;;;;1.75;0.88;;;;;;;;;;4981391;28;20056;-70
2021/11/20 12:44:29;;;;;;;1.73;0.77;;;;;;;;;;4983675;28;20141;-70
2021/11/20 12:47:28;;;;;;;7.28;0.90;;;;;;;;;;4982370;28;20104;-71
2021/11/20 12:50:00;;;;;;;1.38;0.70;;;;;;;;;;4947766;28;20125;-71
2021/11/20 12:52:33;;;;;;;1.23;0.70;;;;;;;;;;4983120;28;20141;-71
2021/11/20 12:55:04;;;;;;;0.98;0.70;;;;;;;;;;4985511;28;20653;-70
2021/11/20 12:57:31;;;;;;;0.55;0.55;;;;;;;;;;4980574;28;20138;-70
2021/11/20 13:00:12;;;;;;;3.25;0.45;;;;;;;;;;4984393;28;20473;-70
2021/11/20 13:02:47;;;;;;;0.50;0.50;;;;;;;;;;4984104;28;20134;-71
2021/11/20 13:05:19;;;;;;;0.63;0.50;;;;;;;;;;4978009;28;20052;-70
2021/11/20 13:07:47;;;;;;;0.40;0.35;;;;;;;;;;4979629;28;20159;-70
2021/11/20 13:10:40;;;;;;;0.52;0.52;;;;;;;;;;4978355;28;20479;-71
2021/11/20 13:13:25;;;;;;;0.43;0.40;;;;;;;;;;4982763;28;20046;-70
2021/11/20 13:16:04;;;;;;;1.85;0.60;;;;;;;;;;4985021;28;20073;-70
2021/11/20 13:18:33;;;;;;;0.30;0.30;;;;;;;;;;4984513;28;20137;-70
2021/11/20 13:21:04;;;;;;;0.98;0.70;;;;;;;;;;4983828;28;20567;-70
2021/11/20 13:23:32;;;;;;;1.27;0.50;;;;;;;;;;4984300;28;20046;-70
2021/11/20 13:25:59;;;;;;;;;;;;;;;;;;4985003;28;20042;-70
2021/11/20 13:28:26;;;;;;;0.70;0.57;;;;;;;;;;4981912;28;19926;-70
2021/11/20 13:30:53;;;;;;;0.60;0.50;;;;;;;;;;4983340;28;20074;-70
2021/11/20 13:33:20;;;;;;;;;;;;;;;;;;4980166;28;20590;-70
2021/11/20 13:35:46;;;;;;;3.20;0.70;;;;;;;;;;4978383;28;19961;-70
2021/11/20 13:38:14;;;;;;;1.48;1.10;;;;;;;;;;4980131;28;20093;-70
2021/11/20 13:40:43;;;;;;;3.33;0.60;;;;;;;;;;4964428;28;20050;-70
2021/11/20 13:43:10;;;;;;;1.25;0.60;;;;;;;;;;4978667;28;20137;-70
2021/11/20 13:45:37;;;;;;;0.50;0.50;;;;;;;;;;4980872;28;20146;-70
2021/11/20 13:48:04;;;;;;;0.53;0.53;;;;;;;;;;4979993;28;20043;-69
2021/11/20 13:50:38;;;;;;;1.80;0.70;;;;;;;;;;4986722;28;20327;-70
2021/11/20 13:53:06;;;;;;;0.57;0.40;;;;;;;;;;4983832;28;20038;-69
2021/11/20 13:55:32;;;;;;;0.95;0.80;;;;;;;;;;4979719;28;20146;-70
2021/11/20 13:57:59;;;;;;;1.33;0.47;;;;;;;;;;4978524;28;20082;-70
2021/11/20 14:00:26;;;;;;;0.75;0.50;;;;;;;;;;4976029;28;20852;-69
2021/11/20 14:02:53;;;;;;;0.77;0.60;;;;;;;;;;4979492;28;20078;-70
2021/11/20 14:05:21;;;;;;;1.92;0.80;;;;;;;;;;4983712;28;20095;-70
2021/11/20 14:07:57;;;;;;;0.73;0.73;;;;;;;;;;4986260;28;20137;-70
2021/11/20 14:10:31;;;;;;;0.50;0.40;;;;;;;;;;4979273;28;20144;-69
2021/11/20 14:13:06;;;;;;;0.88;0.70;;;;;;;;;;4987876;28;20098;-69
2021/11/20 14:15:49;;;;;;;0.60;0.60;;;;;;;;;;4990486;28;20104;-70
2021/11/20 14:18:17;;;;;;;3.15;1.73;;;;;;;;;;4972910;28;20145;-69
2021/11/20 14:20:43;;;;;;;;;;;;;;;;;;4987677;28;20186;-69
2021/11/20 14:23:11;;;;;;;1.65;1.02;;;;;;;;;;4991197;28;19972;-70
2021/11/20 14:25:38;;;;;;;1.05;0.95;;;;;;;;;;4990393;28;20108;-70
2021/11/20 14:28:05;;;;;;;1.07;0.97;;;;;;;;;;4986259;28;20050;-70
2021/11/20 14:30:42;;;;;;;1.15;0.90;;;;;;;;;;4986232;28;20332;-69
2021/11/20 14:33:11;;;;;;;1.40;1.08;;;;;;;;;;4986302;28;20141;-69
2021/11/20 14:35:38;;;;;;;0.95;0.95;;;;;;;;;;4985482;28;20039;-70
2021/11/20 14:38:05;;;;;;;1.10;0.90;;;;;;;;;;4984699;28;20074;-69
2021/11/20 14:40:31;;;;;;;1.20;1.10;;;;;;;;;;4980006;28;20046;-70
2021/11/20 14:42:58;;;;;;;1.00;0.90;;;;;;;;;;4988388;28;20050;-70
2021/11/20 14:45:25;;;;;;;1.35;1.10;;;;;;;;;;4987747;28;20093;-70
2021/11/20 14:47:54;;;;;;;2.08;1.30;;;;;;;;;;4987206;28;20092;-70
2021/11/20 14:50:23;;;;;;;1.38;1.20;;;;;;;;;;4986948;28;20137;-70
2021/11/20 14:53:00;;;;;;;1.73;1.05;;;;;;;;;;4982889;28;20051;-70
2021/11/20 14:55:32;;;;;;;1.35;1.25;;;;;;;;;;4990391;28;20054;-70